createdAt,value
2022-11-30T00:01:13.442Z,4.54
2022-11-30T00:03:40.990Z,4.55
2022-11-30T00:06:10.532Z,4.56
2022-11-30T00:08:38.286Z,4.55
2022-11-30T00:11:11.223Z,4.55
2022-11-30T00:13:38.714Z,4.54
2022-11-30T00:16:07.312Z,4.55
2022-11-30T00:18:34.900Z,4.54
2022-11-30T00:21:03.371Z,4.54
2022-11-30T00:23:33.350Z,4.53
2022-11-30T00:26:02.274Z,4.51
2022-11-30T00:28:32.665Z,4.51
2022-11-30T00:31:02.549Z,4.51
2022-11-30T00:33:30.610Z,4.51
2022-11-30T00:35:59.145Z,4.52
2022-11-30T00:38:27.319Z,4.51
2022-11-30T00:40:56.771Z,4.51
2022-11-30T00:43:24.564Z,4.51
2022-11-30T00:45:55.247Z,4.50
2022-11-30T00:48:22.820Z,4.49
2022-11-30T00:50:51.919Z,4.48
2022-11-30T00:53:20.422Z,4.48
2022-11-30T00:55:48.859Z,4.46
2022-11-30T00:58:16.902Z,4.46
2022-11-30T01:00:44.661Z,4.46
2022-11-30T01:03:13.916Z,4.43
2022-11-30T01:05:43.186Z,4.43
2022-11-30T01:08:12.236Z,4.42
2022-11-30T01:10:41.767Z,4.42
2022-11-30T01:13:10.177Z,4.40
2022-11-30T01:15:38.919Z,4.39
2022-11-30T01:18:06.940Z,4.39
2022-11-30T01:20:36.022Z,4.37
2022-11-30T01:23:03.558Z,4.36
2022-11-30T01:25:31.113Z,4.33
2022-11-30T01:27:58.766Z,4.33
2022-11-30T01:30:26.246Z,4.31
2022-11-30T01:32:54.532Z,4.31
2022-11-30T01:35:22.033Z,4.29
2022-11-30T01:37:50.812Z,4.29
2022-11-30T01:40:18.484Z,4.29
2022-11-30T01:42:49.046Z,4.29
2022-11-30T01:45:16.552Z,4.30
2022-11-30T01:47:49.090Z,4.31
2022-11-30T01:50:21.181Z,4.30
2022-11-30T01:52:54.818Z,4.29
2022-11-30T01:55:27.200Z,4.30
2022-11-30T01:57:58.981Z,4.30
2022-11-30T02:00:26.724Z,4.28
2022-11-30T02:03:01.290Z,4.28
2022-11-30T02:05:29.863Z,4.27
2022-11-30T02:07:58.832Z,4.26
2022-11-30T02:10:30.170Z,4.26
2022-11-30T02:13:28.535Z,4.27
2022-11-30T02:16:02.844Z,4.25
2022-11-30T02:18:38.538Z,4.27
2022-11-30T02:21:14.823Z,4.26
2022-11-30T02:24:20.457Z,4.26
2022-11-30T02:27:12.747Z,4.26
2022-11-30T02:29:44.709Z,4.24
2022-11-30T02:32:16.960Z,4.24
2022-11-30T02:34:47.986Z,4.23
2022-11-30T02:37:17.794Z,4.25
2022-11-30T02:39:46.509Z,4.24
2022-11-30T02:42:15.236Z,4.26
2022-11-30T02:44:46.554Z,4.25
2022-11-30T02:47:22.666Z,4.25
2022-11-30T02:49:55.670Z,4.27
2022-11-30T02:52:26.944Z,4.27
2022-11-30T02:54:55.000Z,4.26
2022-11-30T02:57:22.483Z,4.25
2022-11-30T02:59:51.255Z,4.24
2022-11-30T03:02:18.735Z,4.22
2022-11-30T03:04:46.492Z,4.22
2022-11-30T03:07:14.159Z,4.24
2022-11-30T03:09:41.579Z,4.24
2022-11-30T03:12:09.076Z,4.25
2022-11-30T03:14:36.551Z,4.25
2022-11-30T03:17:05.632Z,4.24
2022-11-30T03:19:33.086Z,4.23
2022-11-30T03:22:01.046Z,4.23
2022-11-30T03:24:28.516Z,4.23
2022-11-30T03:26:55.984Z,4.21
2022-11-30T03:29:23.537Z,4.20
2022-11-30T03:31:51.000Z,4.20
2022-11-30T03:34:19.780Z,4.17
2022-11-30T03:36:47.286Z,4.16
2022-11-30T03:39:14.856Z,4.17
2022-11-30T03:41:42.330Z,4.17
2022-11-30T03:44:09.966Z,4.15
2022-11-30T03:46:37.598Z,4.17
2022-11-30T03:49:05.829Z,4.17
2022-11-30T03:51:34.625Z,4.17
2022-11-30T03:54:02.172Z,4.16
2022-11-30T03:56:29.861Z,4.16
2022-11-30T03:58:57.496Z,4.15
2022-11-30T04:01:25.886Z,4.13
2022-11-30T04:03:56.786Z,4.13
2022-11-30T04:06:24.477Z,4.13
2022-11-30T04:08:53.248Z,4.11
2022-11-30T04:11:20.829Z,4.13
2022-11-30T04:13:48.289Z,4.13
2022-11-30T04:16:15.871Z,4.13
2022-11-30T04:18:43.423Z,4.13
2022-11-30T04:21:11.813Z,4.10
2022-11-30T04:23:40.819Z,4.08
2022-11-30T04:26:13.668Z,4.07
2022-11-30T04:28:41.172Z,4.06
2022-11-30T04:31:09.025Z,4.03
2022-11-30T04:33:36.574Z,4.03
2022-11-30T04:36:06.650Z,4.02
2022-11-30T04:38:34.823Z,4.01
2022-11-30T04:41:09.201Z,4.01
2022-11-30T04:43:37.014Z,4.01
2022-11-30T04:46:04.713Z,4.02
2022-11-30T04:48:32.222Z,4.02
2022-11-30T04:51:01.754Z,4.01
2022-11-30T04:53:29.306Z,4.03
2022-11-30T04:55:56.889Z,4.02
2022-11-30T04:58:26.022Z,4.00
2022-11-30T05:00:54.903Z,4.00
2022-11-30T05:03:22.376Z,4.00
2022-11-30T05:05:49.849Z,4.00
2022-11-30T05:08:17.341Z,4.00
2022-11-30T05:10:48.825Z,4.01
2022-11-30T05:13:19.207Z,4.01
2022-11-30T05:15:48.079Z,4.00
2022-11-30T05:18:15.841Z,4.01
2022-11-30T05:20:48.325Z,4.00
2022-11-30T05:23:16.141Z,3.99
2022-11-30T05:25:43.994Z,3.99
2022-11-30T05:28:11.664Z,3.98
2022-11-30T05:30:39.738Z,3.99
2022-11-30T05:33:08.768Z,3.99
2022-11-30T05:35:37.408Z,3.99
2022-11-30T05:38:05.344Z,3.99
2022-11-30T05:40:33.685Z,4.00
2022-11-30T05:43:04.577Z,3.98
2022-11-30T05:45:32.168Z,3.99
2022-11-30T05:47:59.641Z,4.00
2022-11-30T05:50:28.440Z,4.00
2022-11-30T05:52:57.079Z,4.01
2022-11-30T05:55:25.310Z,4.00
2022-11-30T05:57:52.975Z,4.00
2022-11-30T06:00:22.038Z,4.00
2022-11-30T06:02:49.910Z,3.98
2022-11-30T06:05:17.433Z,3.97
2022-11-30T06:07:46.252Z,3.97
2022-11-30T06:10:14.085Z,3.97
2022-11-30T06:12:41.541Z,3.98
2022-11-30T06:15:09.540Z,3.98
2022-11-30T06:17:37.900Z,3.98
2022-11-30T06:20:05.853Z,3.98
2022-11-30T06:22:33.788Z,3.99
2022-11-30T06:25:02.636Z,4.00
2022-11-30T06:27:32.170Z,4.00
2022-11-30T06:29:59.690Z,4.00
2022-11-30T06:32:27.228Z,4.03
2022-11-30T06:34:54.764Z,4.03
2022-11-30T06:37:22.323Z,4.02
2022-11-30T06:40:05.984Z,4.02
2022-11-30T06:42:36.829Z,4.02
2022-11-30T06:45:05.396Z,4.03
2022-11-30T06:47:32.958Z,4.03
2022-11-30T06:50:00.463Z,4.04
2022-11-30T06:52:27.958Z,4.04
2022-11-30T06:54:55.366Z,4.04
2022-11-30T06:57:27.453Z,4.04
2022-11-30T06:59:56.634Z,4.05
2022-11-30T07:02:35.110Z,4.05
2022-11-30T07:05:21.114Z,4.05
2022-11-30T07:09:08.052Z,4.03
2022-11-30T07:11:24.741Z,4.02
2022-11-30T07:14:05.460Z,4.03
2022-11-30T07:20:45.788Z,4.03
2022-11-30T07:23:42.735Z,4.05
2022-11-30T07:26:30.796Z,4.04
2022-11-30T07:28:59.681Z,4.03
2022-11-30T07:31:38.762Z,4.04
2022-11-30T07:34:31.752Z,4.04
2022-11-30T07:40:34.371Z,4.05
2022-11-30T07:43:02.656Z,4.06
2022-11-30T07:45:30.690Z,4.06
2022-11-30T07:48:01.711Z,4.08
2022-11-30T07:50:31.618Z,4.09
2022-11-30T07:52:59.862Z,4.12
2022-11-30T07:55:33.248Z,4.12
2022-11-30T07:58:01.095Z,4.13
2022-11-30T08:00:28.598Z,4.13
2022-11-30T08:02:56.248Z,4.14
2022-11-30T08:05:24.202Z,4.12
2022-11-30T08:07:54.379Z,4.12
2022-11-30T08:10:23.304Z,4.12
2022-11-30T08:12:51.680Z,4.14
2022-11-30T08:15:20.708Z,4.16
2022-11-30T08:17:54.414Z,4.19
2022-11-30T08:20:23.100Z,4.20
2022-11-30T08:22:52.445Z,4.21
2022-11-30T08:25:21.337Z,4.21
2022-11-30T08:27:51.421Z,4.23
2022-11-30T08:30:21.321Z,4.24
2022-11-30T08:32:52.762Z,4.22
2022-11-30T08:48:47.669Z,4.22
2022-11-30T09:00:20.512Z,4.24
2022-11-30T09:03:36.279Z,4.24
2022-11-30T09:06:16.776Z,4.29
2022-11-30T09:09:17.425Z,4.31
2022-11-30T09:25:23.812Z,4.49
2022-11-30T09:35:25.151Z,4.59
2022-11-30T09:58:58.973Z,4.80
2022-11-30T10:05:16.320Z,4.95
2022-11-30T10:12:39.120Z,5.09
2022-11-30T10:16:16.674Z,5.10
2022-11-30T10:19:00.610Z,5.16
2022-11-30T10:21:52.629Z,5.19
2022-11-30T10:24:33.773Z,5.25
2022-11-30T10:27:13.320Z,5.31
2022-11-30T10:29:44.236Z,5.39
2022-11-30T10:32:18.545Z,5.45
2022-11-30T10:34:50.255Z,5.51
2022-11-30T10:37:21.699Z,5.54
2022-11-30T10:40:02.817Z,5.59
2022-11-30T10:42:41.482Z,5.62
2022-11-30T10:45:15.974Z,5.65
2022-11-30T10:47:58.978Z,5.69
2022-11-30T10:50:34.471Z,5.72
2022-11-30T10:53:04.761Z,5.82
2022-11-30T10:55:43.184Z,5.85
2022-11-30T10:58:20.929Z,5.91
2022-11-30T11:01:03.733Z,5.97
2022-11-30T11:03:32.486Z,6.04
2022-11-30T11:06:12.615Z,6.08
2022-11-30T11:08:42.743Z,6.13
2022-11-30T11:11:31.033Z,6.18
2022-11-30T11:14:21.035Z,6.28
2022-11-30T11:17:09.521Z,6.39
2022-11-30T11:19:44.126Z,6.41
2022-11-30T11:22:28.257Z,6.44
2022-11-30T11:25:18.020Z,6.50
2022-11-30T11:27:55.086Z,6.59
2022-11-30T11:30:31.697Z,6.67
2022-11-30T11:33:03.670Z,6.73
2022-11-30T11:35:41.011Z,6.82
2022-11-30T11:38:27.713Z,6.90
2022-11-30T11:41:03.152Z,6.98
2022-11-30T11:43:47.362Z,7.04
2022-11-30T11:46:26.121Z,7.11
2022-11-30T11:52:15.132Z,7.22
2022-11-30T11:55:12.564Z,7.28
2022-11-30T11:57:47.859Z,7.31
2022-11-30T12:00:19.682Z,7.34
2022-11-30T12:02:57.773Z,7.35
2022-11-30T12:05:33.728Z,7.37
2022-11-30T12:08:10.725Z,7.41
2022-11-30T12:10:52.501Z,7.45
2022-11-30T12:13:23.080Z,7.45
2022-11-30T12:16:06.172Z,7.48
2022-11-30T12:18:46.716Z,7.47
2022-11-30T12:21:20.289Z,7.49
2022-11-30T12:24:06.931Z,7.49
2022-11-30T12:26:40.355Z,7.51
2022-11-30T12:29:23.969Z,7.52
2022-11-30T12:32:09.097Z,7.57
2022-11-30T12:34:51.030Z,7.60
2022-11-30T12:37:31.551Z,7.50
2022-11-30T12:40:14.678Z,7.38
2022-11-30T12:42:47.939Z,7.33
2022-11-30T12:45:24.319Z,7.29
2022-11-30T12:48:02.590Z,7.20
2022-11-30T12:50:45.898Z,7.07
2022-11-30T12:53:25.469Z,6.95
2022-11-30T12:56:04.811Z,6.87
2022-11-30T12:58:45.680Z,6.76
2022-11-30T13:01:40.330Z,6.64
2022-11-30T13:07:33.118Z,6.59
2022-11-30T13:10:19.565Z,6.67
2022-11-30T13:13:00.145Z,6.70
2022-11-30T13:15:39.246Z,6.77
2022-11-30T13:18:16.934Z,6.86
2022-11-30T13:20:54.024Z,6.88
2022-11-30T13:27:06.531Z,6.78
2022-11-30T13:30:21.879Z,6.58
2022-11-30T13:33:08.180Z,6.35
2022-11-30T13:35:44.347Z,6.22
2022-11-30T13:38:37.817Z,6.10
2022-11-30T13:41:11.089Z,5.93
2022-11-30T13:43:49.359Z,5.80
2022-11-30T13:46:26.865Z,5.69
2022-11-30T13:49:36.981Z,5.58
2022-11-30T13:55:58.097Z,5.37
2022-11-30T14:01:30.586Z,5.20
2022-11-30T14:08:04.056Z,5.07
2022-11-30T14:10:48.232Z,4.99
2022-11-30T14:13:42.863Z,4.91
2022-11-30T14:16:30.527Z,4.85
2022-11-30T14:19:01.221Z,4.81
2022-11-30T14:21:33.598Z,4.74
2022-11-30T14:24:25.068Z,4.69
2022-11-30T14:26:54.601Z,4.61
2022-11-30T14:32:13.528Z,4.35
2022-11-30T14:34:59.058Z,4.23
2022-11-30T14:37:32.463Z,4.12
2022-11-30T14:40:22.264Z,4.04
2022-11-30T14:46:04.553Z,3.81
2022-11-30T14:48:34.157Z,3.75
2022-11-30T14:51:06.628Z,3.63
2022-11-30T14:53:47.109Z,3.56
2022-11-30T14:56:26.132Z,3.48
2022-11-30T15:02:03.448Z,3.44
2022-11-30T15:04:33.489Z,3.44
2022-11-30T15:07:13.902Z,3.45
2022-11-30T15:09:44.374Z,3.42
2022-11-30T15:12:19.202Z,3.40
2022-11-30T15:15:19.115Z,3.34
2022-11-30T15:17:51.764Z,3.25
2022-11-30T15:20:35.278Z,3.20
2022-11-30T15:23:04.862Z,3.13
2022-11-30T15:25:40.536Z,3.07
2022-11-30T15:28:14.583Z,3.04
2022-11-30T15:31:01.015Z,3.02
2022-11-30T15:33:38.483Z,2.98
2022-11-30T15:36:32.868Z,2.97
2022-11-30T15:38:55.745Z,2.94
2022-11-30T15:41:25.631Z,2.94
2022-11-30T15:43:59.253Z,2.91
2022-11-30T15:46:33.281Z,2.88
2022-11-30T15:49:24.441Z,2.86
2022-11-30T15:52:02.911Z,2.86
2022-11-30T15:54:48.828Z,2.87
2022-11-30T15:57:18.278Z,2.90
2022-11-30T16:00:06.864Z,2.86
2022-11-30T16:02:36.040Z,2.86
2022-11-30T16:05:24.272Z,2.85
2022-11-30T16:07:54.521Z,2.84
2022-11-30T16:10:24.965Z,2.84
2022-11-30T16:12:54.337Z,2.81
2022-11-30T16:15:25.497Z,2.79
2022-11-30T16:17:57.198Z,2.80
2022-11-30T16:20:25.478Z,2.80
2022-11-30T16:22:53.133Z,2.79
2022-11-30T16:25:22.778Z,2.78
2022-11-30T16:27:50.857Z,2.77
2022-11-30T16:30:20.839Z,2.75
2022-11-30T16:32:50.437Z,2.73
2022-11-30T16:35:21.794Z,2.72
2022-11-30T16:37:49.330Z,2.71
2022-11-30T16:40:17.202Z,2.69
2022-11-30T16:42:44.891Z,2.67
2022-11-30T16:45:16.639Z,2.67
2022-11-30T16:47:45.688Z,2.66
2022-11-30T16:50:15.616Z,2.64
2022-11-30T16:52:43.896Z,2.63
2022-11-30T16:55:14.387Z,2.62
2022-11-30T16:57:41.844Z,2.61
2022-11-30T17:00:11.298Z,2.60
2022-11-30T17:02:43.207Z,2.62
2022-11-30T17:05:11.799Z,2.62
2022-11-30T17:07:40.818Z,2.60
2022-11-30T17:10:09.577Z,2.59
2022-11-30T17:12:37.156Z,2.61
2022-11-30T17:15:06.008Z,2.62
2022-11-30T17:17:33.618Z,2.63
2022-11-30T17:20:01.199Z,2.64
2022-11-30T17:22:28.628Z,2.65
2022-11-30T17:24:57.426Z,2.64
2022-11-30T17:27:27.834Z,2.61
2022-11-30T17:29:55.878Z,2.60
2022-11-30T17:32:23.493Z,2.56
2022-11-30T17:34:51.061Z,2.57
2022-11-30T17:37:18.567Z,2.57
2022-11-30T17:39:46.099Z,2.58
2022-11-30T17:42:14.943Z,2.60
2022-11-30T17:44:42.676Z,2.60
2022-11-30T17:47:10.290Z,2.58
2022-11-30T17:49:38.189Z,2.58
2022-11-30T17:52:05.773Z,2.58
2022-11-30T17:54:33.270Z,2.60
2022-11-30T17:57:00.858Z,2.62
2022-11-30T17:59:29.646Z,2.60
2022-11-30T18:01:57.228Z,2.62
2022-11-30T18:04:24.949Z,2.62
2022-11-30T18:06:52.482Z,2.62
2022-11-30T18:09:19.963Z,2.64
2022-11-30T18:11:47.626Z,2.62
2022-11-30T18:14:16.173Z,2.58
2022-11-30T18:16:45.106Z,2.55
2022-11-30T18:19:14.729Z,2.53
2022-11-30T18:21:44.111Z,2.52
2022-11-30T18:24:12.679Z,2.51
2022-11-30T18:26:40.839Z,2.49
2022-11-30T18:29:08.913Z,2.48
2022-11-30T18:31:37.198Z,2.45
2022-11-30T18:34:07.582Z,2.42
2022-11-30T18:36:35.800Z,2.42
2022-11-30T18:39:03.884Z,2.42
2022-11-30T18:41:31.437Z,2.40
2022-11-30T18:43:59.418Z,2.40
2022-11-30T18:46:27.065Z,2.40
2022-11-30T18:48:56.309Z,2.41
2022-11-30T18:51:27.132Z,2.40
2022-11-30T18:53:57.598Z,2.40
2022-11-30T18:56:26.353Z,2.38
2022-11-30T18:58:56.504Z,2.36
2022-11-30T19:01:24.759Z,2.37
2022-11-30T19:03:53.313Z,2.39
2022-11-30T19:06:21.579Z,2.39
2022-11-30T19:08:50.371Z,2.40
2022-11-30T19:11:18.761Z,2.39
2022-11-30T19:13:46.855Z,2.38
2022-11-30T19:16:16.610Z,2.38
2022-11-30T19:18:44.911Z,2.36
2022-11-30T19:21:15.152Z,2.34
2022-11-30T19:23:42.849Z,2.31
2022-11-30T19:26:13.326Z,2.30
2022-11-30T19:28:42.134Z,2.28
2022-11-30T19:31:11.666Z,2.27
2022-11-30T19:33:40.724Z,2.25
2022-11-30T19:36:12.271Z,2.24
2022-11-30T19:38:40.059Z,2.25
2022-11-30T19:41:09.285Z,2.23
2022-11-30T19:43:38.308Z,2.20
2022-11-30T19:46:06.977Z,2.18
2022-11-30T19:48:35.603Z,2.20
2022-11-30T19:51:06.777Z,2.20
2022-11-30T19:53:35.877Z,2.21
2022-11-30T19:56:06.285Z,2.20
2022-11-30T19:58:34.044Z,2.21
2022-11-30T20:01:03.362Z,2.19
2022-11-30T20:03:33.764Z,2.20
2022-11-30T20:06:01.343Z,2.19
2022-11-30T20:08:28.871Z,2.20
2022-11-30T20:10:56.477Z,2.19
2022-11-30T20:13:24.882Z,2.20
2022-11-30T20:15:52.594Z,2.21
2022-11-30T20:18:21.547Z,2.23
2022-11-30T20:20:49.077Z,2.25
2022-11-30T20:23:16.570Z,2.24
2022-11-30T20:25:44.013Z,2.22
2022-11-30T20:28:12.695Z,2.21
2022-11-30T20:30:40.510Z,2.19
2022-11-30T20:33:08.034Z,2.16
2022-11-30T20:35:37.126Z,2.14
2022-11-30T20:38:04.594Z,2.11
2022-11-30T20:40:32.135Z,2.13
2022-11-30T20:42:59.590Z,2.13
2022-11-30T20:45:27.090Z,2.13
2022-11-30T20:47:54.524Z,2.12
2022-11-30T20:50:22.042Z,2.14
2022-11-30T20:52:50.825Z,2.15
2022-11-30T20:55:18.438Z,2.15
2022-11-30T20:57:47.590Z,2.15
2022-11-30T21:00:16.132Z,2.15
2022-11-30T21:02:44.798Z,2.15
2022-11-30T21:05:12.707Z,2.12
2022-11-30T21:07:40.222Z,2.13
2022-11-30T21:10:10.814Z,2.12
2022-11-30T21:12:38.985Z,2.09
2022-11-30T21:15:07.918Z,2.10
2022-11-30T21:17:35.610Z,2.11
2022-11-30T21:20:03.935Z,2.09
2022-11-30T21:22:31.470Z,2.08
2022-11-30T21:24:59.028Z,2.08
2022-11-30T21:27:27.897Z,2.07
2022-11-30T21:29:55.425Z,2.07
2022-11-30T21:32:23.476Z,2.07
2022-11-30T21:34:51.024Z,2.05
2022-11-30T21:37:18.598Z,2.04
2022-11-30T21:39:46.281Z,2.03
2022-11-30T21:42:13.805Z,2.01
2022-11-30T21:44:42.820Z,2.00
2022-11-30T21:47:13.593Z,1.98
2022-11-30T21:49:41.279Z,1.96
2022-11-30T21:52:08.786Z,1.97
2022-11-30T21:54:37.459Z,1.95
2022-11-30T21:57:04.994Z,1.97
2022-11-30T21:59:32.493Z,1.97
2022-11-30T22:02:01.288Z,1.99
2022-11-30T22:04:28.821Z,1.99
2022-11-30T22:06:56.553Z,1.97
2022-11-30T22:09:24.026Z,1.96
2022-11-30T22:11:51.598Z,1.96
2022-11-30T22:14:19.103Z,1.96
2022-11-30T22:16:46.887Z,1.94
2022-11-30T22:19:16.486Z,1.93
2022-11-30T22:21:49.654Z,1.93
2022-11-30T22:24:17.433Z,1.93
2022-11-30T22:26:46.047Z,1.93
2022-11-30T22:29:15.959Z,1.92
2022-11-30T22:31:45.393Z,1.92
2022-11-30T22:34:13.192Z,1.94
2022-11-30T22:36:43.597Z,1.93
2022-11-30T22:39:13.007Z,1.93
2022-11-30T22:41:41.352Z,1.95
2022-11-30T22:44:12.768Z,1.96
2022-11-30T22:46:40.522Z,1.96
2022-11-30T22:49:09.977Z,1.96
2022-11-30T22:51:37.977Z,1.95
2022-11-30T22:54:07.587Z,1.95
2022-11-30T22:56:37.080Z,1.96
2022-11-30T22:59:06.297Z,1.96
2022-11-30T23:01:35.587Z,1.95
2022-11-30T23:04:05.337Z,1.97
2022-11-30T23:06:34.451Z,1.97
2022-11-30T23:09:02.693Z,1.98
2022-11-30T23:11:32.179Z,1.97
2022-11-30T23:13:59.708Z,1.97
2022-11-30T23:16:27.339Z,1.97
2022-11-30T23:18:57.161Z,1.97
2022-11-30T23:21:26.804Z,1.95
2022-11-30T23:23:55.786Z,1.95
2022-11-30T23:26:24.825Z,1.95
2022-11-30T23:28:55.331Z,1.94
2022-11-30T23:31:33.664Z,1.94
2022-11-30T23:34:04.544Z,1.93
2022-11-30T23:36:32.017Z,1.94
2022-11-30T23:39:01.813Z,1.93
2022-11-30T23:41:29.607Z,1.93
2022-11-30T23:43:58.636Z,1.92
2022-11-30T23:46:26.550Z,1.92
2022-11-30T23:48:55.668Z,1.92
2022-11-30T23:51:23.990Z,1.90
2022-11-30T23:53:51.559Z,1.87
2022-11-30T23:56:20.346Z,1.87
2022-11-30T23:58:48.204Z,1.84
